Latest Weather Observations for Alva Beach

IDQ60801

Issued at 4:12 pm EST Saturday 5 December 2020 (issued every 10 minutes, with the page automatically refreshed every 10 minutes)

About weather observations | Map of weather stations | Latest weather observations for QLD | Other Formats
Station Details ID: 033295 Name: ALVA BEACH Lat: -19.46 Lon: 147.48 Height: 7.5 m
Data from the previous 72 hours. | See also: Recent months at Alva Beach
Date/Time
EST
Temp
°C
App
Temp
°C
Dew
Point
°C
Rel
Hum
%
Delta-T
°C
Wind Press
QNH
hPa
Press
MSL
hPa
Rain since
9am
mm
Dir  Spd
km/h
Gust
km/h
Spd
kts
Gust
kts
05/04:00pm 28.7 28.7 21.7 66 4.7 NE 24 30 13 16 1010.2 1010.2 0.0
05/03:30pm 29.1 29.4 21.6 64 5.0 NE 22 28 12 15 1010.4 1010.4 0.0
05/03:00pm 28.8 29.1 21.6 65 4.8 NE 22 26 12 14 1010.6 1010.6 0.0
05/02:30pm 29.1 29.2 21.1 62 5.3 NE 22 28 12 15 1010.8 1010.8 0.0
05/02:00pm 29.3 29.2 20.7 59 5.7 NE 22 26 12 14 1011.1 1011.1 0.0
05/01:30pm 28.9 29.4 20.9 62 5.3 ENE 19 24 10 13 1011.4 1011.4 0.0
05/01:00pm 29.6 30.3 21.5 61 5.4 NE 20 24 11 13 1011.7 1011.7 0.0
05/12:30pm 29.5 29.7 20.1 57 6.2 NE 19 22 10 12 1012.0 1012.0 0.0
05/12:00pm 29.4 30.1 20.5 58 5.9 NE 17 20 9 11 1012.4 1012.4 0.0
05/11:30am 29.5 30.3 21.4 61 5.4 ENE 19 22 10 12 1012.6 1012.6 0.0
05/11:00am 28.9 30.5 21.4 64 5.0 ENE 15 20 8 11 1013.0 1013.0 0.0
05/10:30am 28.3 30.2 22.1 69 4.2 ENE 15 20 8 11 1013.2 1013.2 0.0
05/10:00am 27.0 30.8 21.7 73 3.5 NNE 4 13 2 7 1013.5 1013.5 0.0
05/09:30am 27.3 29.0 21.6 71 3.8 ENE 15 22 8 12 1013.5 1013.5 0.0
05/09:00am 27.7 29.3 22.2 72 3.7 E 17 24 9 13 1013.6 1013.6 0.0
05/08:30am 27.2 28.8 22.2 74 3.4 E 17 24 9 13 1013.5 1013.5 0.0
05/08:00am 26.7 29.2 21.7 74 3.3 E 11 15 6 8 1013.6 1013.6 0.0
05/07:30am 26.5 28.6 21.7 75 3.2 E 13 20 7 11 1013.3 1013.3 0.0
05/07:00am 24.8 27.9 21.1 80 2.4 S 6 11 3 6 1013.0 1013.0 0.0
05/06:30am 23.8 26.6 20.9 84 1.9 SSW 7 9 4 5 1012.6 1012.6 0.0
05/06:00am 23.0 25.5 20.3 85 1.7 SSW 7 11 4 6 1012.5 1012.5 0.0
05/05:30am 22.6 24.9 19.9 85 1.7 SSW 7 11 4 6 1012.2 1012.2 0.0
05/05:00am 24.7 27.6 21.0 80 2.4 E 7 13 4 7 1011.7 1011.7 0.0
05/04:30am 25.2 27.3 20.9 77 2.8 E 11 15 6 8 1011.6 1011.6 0.0
05/04:00am 25.3 27.8 21.0 77 2.8 E 9 17 5 9 1011.5 1011.5 0.0
05/03:30am 25.4 28.1 21.3 78 2.7 E 9 17 5 9 1011.6 1011.6 0.0
05/03:00am 25.5 27.2 21.0 76 3.0 E 13 19 7 10 1011.4 1011.4 0.0
05/02:30am 25.6 27.0 21.1 76 3.0 E 15 20 8 11 1011.4 1011.4 0.0
05/02:00am 25.6 26.5 20.8 75 3.2 E 17 20 9 11 1011.5 1011.5 0.0
05/01:30am 25.8 26.2 21.0 75 3.2 ENE 20 24 11 13 1011.7 1011.7 0.0
05/01:00am 25.9 26.4 21.1 75 3.2 ENE 20 28 11 15 1011.8 1011.8 0.0
05/12:30am 25.9 26.2 20.7 73 3.4 ENE 20 26 11 14 1012.0 1012.0 0.0
05/12:00am 26.0 26.1 21.2 75 3.2 ENE 22 26 12 14 1012.1 1012.1 0.0
 
Date/Time
EST
Temp
°C
App
Temp
°C
Dew
Point
°C
Rel
Hum
%
Delta-T
°C
Wind Press
QNH
hPa
Press
MSL
hPa
Rain since
9am
mm
Dir  Spd
km/h
Gust
km/h
Spd
kts
Gust
kts
04/11:30pm 26.0 26.4 21.0 74 3.3 ENE 20 26 11 14 1012.4 1012.4 0.0
04/11:00pm 26.0 26.5 21.2 75 3.2 ENE 20 28 11 15 1012.5 1012.5 0.0
04/10:30pm 26.1 26.8 21.5 76 3.1 ENE 20 28 11 15 1012.7 1012.7 0.0
04/10:00pm 26.1 26.4 21.5 76 3.1 ENE 22 26 12 14 1012.9 1012.9 0.0
04/09:30pm 26.2 26.2 21.0 73 3.4 ENE 22 30 12 16 1012.8 1012.8 0.0
04/09:00pm 26.3 26.0 21.1 73 3.4 ENE 24 30 13 16 1012.5 1012.5 0.0
04/08:30pm 26.4 26.0 21.6 75 3.2 ENE 26 30 14 16 1012.2 1012.2 0.0
04/08:00pm 26.5 26.4 21.5 74 3.3 ENE 24 30 13 16 1012.2 1012.2 0.0
04/07:30pm 26.6 26.1 21.4 73 3.5 ENE 26 33 14 18 1012.0 1012.0 0.0
04/07:00pm 26.7 27.0 21.5 73 3.5 ENE 22 30 12 16 1012.0 1012.0 0.0
04/06:30pm 26.9 26.2 21.0 70 3.9 ENE 26 32 14 17 1011.8 1011.8 0.0
04/06:00pm 27.2 26.3 21.5 71 3.8 ENE 28 33 15 18 1011.5 1011.5 0.0
04/05:30pm 27.5 27.4 21.5 70 4.0 ENE 24 32 13 17 1011.5 1011.5 0.0
04/05:00pm 27.6 26.3 20.7 66 4.6 ENE 28 32 15 17 1011.4 1011.4 0.0
04/04:30pm 27.8 26.3 21.8 70 4.0 ENE 32 35 17 19 1011.3 1011.3 0.0
04/04:00pm 28.0 26.8 22.2 70 3.9 ENE 32 39 17 21 1011.1 1011.1 0.0
04/03:30pm 28.2 27.2 22.7 72 3.7 ENE 32 37 17 20 1011.1 1011.1 0.0
04/03:00pm 28.6 27.3 22.1 68 4.4 ENE 32 39 17 21 1011.3 1011.3 0.0
04/02:30pm 28.6 27.7 21.4 65 4.8 ENE 28 37 15 20 1011.8 1011.8 0.0
04/02:00pm 28.7 28.2 21.5 65 4.8 ENE 26 35 14 19 1012.3 1012.3 0.0
04/01:30pm 28.6 28.0 20.6 62 5.3 E 24 32 13 17 1012.9 1012.9 0.0
04/01:00pm 29.0 29.0 21.0 62 5.3 E 22 32 12 17 1013.4 1013.4 0.0
04/12:30pm 28.6 28.8 20.6 62 5.3 E 20 28 11 15 1014.0 1014.0 0.0
04/12:00pm 28.9 29.4 21.9 66 4.7 E 22 30 12 16 1014.2 1014.2 0.0
04/11:30am 28.9 29.6 22.2 67 4.5 E 22 32 12 17 1014.6 1014.6 0.0
04/11:00am 28.3 27.8 20.8 63 5.0 E 24 33 13 18 1014.9 1014.9 0.0
04/10:30am 28.4 27.8 20.4 62 5.3 E 24 35 13 19 1015.1 1015.1 0.0
04/10:00am 28.9 28.1 20.1 59 5.8 E 24 37 13 20 1015.4 1015.4 0.0
04/09:30am 29.5 30.0 22.0 64 5.1 E 22 32 12 17 1015.7 1015.7 0.0
04/09:00am 28.2 28.2 21.7 68 4.4 E 24 33 13 18 1015.7 1015.7 0.0
04/08:30am 28.2 27.5 21.0 65 4.8 E 26 33 14 18 1015.6 1015.6 0.0
04/08:00am 27.4 28.3 21.9 72 3.7 ESE 20 33 11 18 1015.7 1015.7 0.0
04/07:30am 27.3 27.7 21.8 72 3.7 E 22 32 12 17 1015.4 1015.4 0.0
04/07:00am 27.2 27.7 21.9 73 3.5 E 22 30 12 16 1015.1 1015.1 0.0
04/06:30am 26.3 26.5 21.3 74 3.3 E 22 32 12 17 1014.7 1014.7 0.0
04/06:00am 26.2 26.3 21.8 77 2.9 E 24 33 13 18 1014.2 1014.2 0.0
04/05:30am 26.0 26.1 21.2 75 3.2 E 22 33 12 18 1013.9 1013.9 0.0
04/05:00am 26.1 26.3 22.0 78 2.7 E 24 37 13 20 1013.6 1013.6 0.0
04/04:30am 26.0 26.4 21.7 77 2.9 E 22 32 12 17 1013.5 1013.5 0.0
04/04:00am 26.2 26.8 22.1 78 2.7 E 22 33 12 18 1013.5 1013.5 0.0
04/03:30am 26.3 26.7 22.4 79 2.6 E 24 32 13 17 1013.6 1013.6 0.0
04/03:00am 26.2 27.4 22.5 80 2.5 E 20 28 11 15 1013.7 1013.7 0.0
04/02:30am 26.3 27.5 22.2 78 2.8 E 19 26 10 14 1013.7 1013.7 0.0
04/02:00am 26.1 27.3 22.2 79 2.6 E 19 28 10 15 1013.9 1013.9 0.0
04/01:30am 26.2 28.0 22.5 80 2.5 E 17 22 9 12 1014.2 1014.2 0.0
04/01:00am 26.2 27.0 21.8 77 2.9 E 20 28 11 15 1014.4 1014.4 0.0
04/12:30am 26.2 27.7 22.7 81 2.4 E 19 30 10 16 1014.6 1014.6 0.0
04/12:00am 26.3 27.6 22.6 80 2.5 E 20 30 11 16 1014.5 1014.5 0.0
 
Date/Time
EST
Temp
°C
App
Temp
°C
Dew
Point
°C
Rel
Hum
%
Delta-T
°C
Wind Press
QNH
hPa
Press
MSL
hPa
Rain since
9am
mm
Dir  Spd
km/h
Gust
km/h
Spd
kts
Gust
kts
03/11:30pm 26.4 27.8 22.9 81 2.4 E 20 30 11 16 1014.7 1014.7 0.0
03/11:00pm 26.4 26.8 22.5 79 2.6 E 24 32 13 17 1014.9 1014.9 0.0
03/10:30pm 26.4 27.7 22.3 78 2.8 E 19 28 10 15 1015.0 1015.0 0.0
03/10:00pm 26.4 27.5 22.0 77 2.9 E 19 24 10 13 1015.0 1015.0 0.0
03/09:30pm 26.4 27.5 22.0 77 2.9 E 19 28 10 15 1014.8 1014.8 0.0
03/09:00pm 26.5 27.4 21.9 76 3.1 E 20 30 11 16 1014.7 1014.7 0.0
03/08:30pm 26.5 27.3 21.7 75 3.2 E 20 32 11 17 1014.5 1014.5 0.0
03/08:00pm 26.6 27.4 21.8 75 3.2 E 20 30 11 16 1014.4 1014.4 0.0
03/07:30pm 26.7 27.3 22.1 76 3.1 E 22 30 12 16 1014.3 1014.3 0.0
03/07:00pm 26.7 26.9 22.1 76 3.1 E 24 35 13 19 1014.2 1014.2 0.0
03/06:30pm 26.8 26.4 21.6 73 3.5 E 26 35 14 19 1013.8 1013.8 0.0
03/06:00pm 27.2 27.1 22.2 74 3.4 E 26 35 14 19 1013.7 1013.7 0.0
03/05:30pm 27.5 26.1 21.1 68 4.2 E 30 39 16 21 1013.5 1013.5 0.0
03/05:00pm 27.6 27.4 22.1 72 3.7 E 26 37 14 20 1013.5 1013.5 0.0
03/04:30pm 28.1 26.7 22.3 70 3.9 E 33 41 18 22 1013.3 1013.3 0.0
03/04:00pm 28.3 28.9 23.4 75 3.4 E 26 37 14 20 1013.3 1013.3 0.0
03/03:30pm 28.3 27.8 22.8 72 3.7 E 30 39 16 21 1013.3 1013.3 0.0
03/03:00pm 29.0 28.7 23.2 71 4.0 E 30 39 16 21 1013.5 1013.5 0.0
03/02:30pm 28.8 28.3 22.1 67 4.5 E 28 39 15 21 1013.8 1013.8 0.0
03/02:00pm 28.5 27.0 21.8 67 4.5 E 32 43 17 23 1013.9 1013.9 0.0
03/01:30pm 28.6 28.1 22.1 68 4.4 E 28 37 15 20 1014.1 1014.1 0.0
03/01:00pm 29.1 27.5 21.6 64 5.0 E 32 39 17 21 1014.3 1014.3 0.0
03/12:30pm 28.9 28.8 22.2 67 4.5 E 26 35 14 19 1014.6 1014.6 0.0
03/12:00pm 29.1 29.1 21.6 64 5.0 E 24 33 13 18 1014.9 1014.9 0.0
03/11:30am 28.7 28.6 22.2 68 4.4 E 26 39 14 21 1015.1 1015.1 0.0
03/11:00am 28.7 28.9 22.7 70 4.1 E 26 37 14 20 1015.4 1015.4 0.0
03/10:30am 29.0 29.4 22.5 68 4.4 E 24 35 13 19 1015.5 1015.5 0.0
03/10:00am 30.0 30.8 23.2 67 4.7 ESE 24 35 13 19 1015.4 1015.4 0.0
03/09:30am 29.4 30.4 22.9 68 4.4 ESE 22 33 12 18 1015.3 1015.3 0.0
03/09:00am 28.9 29.6 22.9 70 4.1 ESE 24 41 13 22 1015.1 1015.1 1.2
03/08:30am 28.8 29.9 23.0 71 4.0 ESE 22 32 12 17 1015.1 1015.1 1.2
03/08:00am 27.5 28.2 22.2 73 3.6 E 22 33 12 18 1014.8 1014.8 1.2
03/07:30am 27.5 28.2 22.2 73 3.6 E 22 32 12 17 1014.4 1014.4 1.2
03/07:00am 27.3 28.3 21.8 72 3.7 E 19 28 10 15 1014.3 1014.3 1.2
03/06:30am 26.5 27.3 21.7 75 3.2 E 20 30 11 16 1013.8 1013.8 1.2
03/06:00am 26.3 25.8 21.5 75 3.2 E 26 32 14 17 1013.3 1013.3 1.2
03/05:30am 26.2 25.8 21.6 76 3.1 E 26 33 14 18 1013.0 1013.0 1.2
03/05:00am 26.1 25.6 21.5 76 3.1 E 26 32 14 17 1012.6 1012.6 1.2
03/04:30am 26.2 26.1 22.3 79 2.6 E 26 35 14 19 1012.5 1012.5 1.2
03/04:00am 26.2 26.5 22.3 79 2.6 E 24 28 13 15 1012.4 1012.4 0.4
03/03:30am 26.3 26.3 22.4 79 2.6 E 26 32 14 17 1012.4 1012.4 0.0
03/03:00am 26.3 26.4 22.6 80 2.5 ENE 26 32 14 17 1012.2 1012.2 0.0
03/02:30am 26.4 26.9 22.7 80 2.5 ENE 24 32 13 17 1012.4 1012.4 0.0
03/02:00am 26.5 26.9 23.2 82 2.2 ENE 26 32 14 17 1012.7 1012.7 0.0
03/01:30am 26.6 28.4 23.5 83 2.1 E 20 26 11 14 1013.1 1013.1 0.0
03/01:00am 26.5 28.8 23.4 83 2.1 E 17 22 9 12 1013.5 1013.5 0.0
03/12:30am 26.8 28.1 23.3 81 2.4 ENE 22 28 12 15 1013.8 1013.8 0.0
03/12:00am 26.8 28.5 23.1 80 2.5 E 19 26 10 14 1014.2 1014.2 0.0
 
Date/Time
EST
Temp
°C
App
Temp
°C
Dew
Point
°C
Rel
Hum
%
Delta-T
°C
Wind Press
QNH
hPa
Press
MSL
hPa
Rain since
9am
mm
Dir  Spd
km/h
Gust
km/h
Spd
kts
Gust
kts
02/11:30pm 26.8 27.8 22.8 79 2.7 E 22 30 12 16 1014.6 1014.6 0.0
02/11:00pm 27.0 27.7 23.7 82 2.3 ENE 26 32 14 17 1014.6 1014.6 0.0
02/10:30pm 27.0 28.5 23.7 82 2.3 ENE 22 26 12 14 1014.8 1014.8 0.0
02/10:00pm 27.2 27.3 23.9 82 2.3 ENE 30 35 16 19 1014.8 1014.8 0.0
02/09:30pm 27.1 27.6 23.3 80 2.6 ENE 26 32 14 17 1014.5 1014.5 0.0
02/09:00pm 27.2 27.8 23.4 80 2.6 ENE 26 32 14 17 1014.2 1014.2 0.0
02/08:30pm 27.1 26.8 23.3 80 2.6 ENE 30 33 16 18 1014.0 1014.0 0.0
02/08:00pm 27.1 27.5 23.8 82 2.3 ENE 28 33 15 18 1013.8 1013.8 0.0
02/07:30pm 27.3 27.6 24.2 83 2.1 ENE 30 33 16 18 1013.4 1013.4 0.0
02/07:00pm 27.2 27.8 24.1 83 2.1 ENE 28 33 15 18 1013.1 1013.1 0.0
02/06:30pm 27.4 28.2 24.5 84 2.0 ENE 28 33 15 18 1012.8 1012.8 0.0
02/06:00pm 27.6 28.2 24.2 82 2.4 ENE 28 33 15 18 1012.5 1012.5 0.0
02/05:30pm 27.8 28.4 24.2 81 2.5 ENE 28 30 15 16 1012.4 1012.4 0.0
02/05:00pm 28.0 28.8 24.4 81 2.5 ENE 28 33 15 18 1012.3 1012.3 0.0
02/04:30pm 28.3 29.4 24.3 79 2.8 ENE 26 30 14 16 1011.9 1011.9 0.0

Other formats

Comma delimited format used in spreadsheet applications
http://www.bom.gov.au/fwo/IDQ60801/IDQ60801.95296.axf

JavaScript Object Notation format (JSON) in row-major order
http://www.bom.gov.au/fwo/IDQ60801/IDQ60801.95296.json

Data quality

Most of these data are generated automatically and are frequently updated. Quality checks on data are not normally performed. It is possible for incorrect values to appear. Refer to information at About Latest Weather Observations and please check the disclaimer before using these data.